Warsaw, IL (62379)

4:24 AM CST on December 04, 2016 (GMT -0600)
KEOIA | | Change Station

Elev 629 ft 40.40 °N, 91.38 °W | Updated 12 seconds ago

Rain
Rain
36.1 °F
Feels Like 36 °F
N
3.0
Wind Variable Wind from ENE
Gusts 7.0 mph

Today
High -- | Low -- °F
--% Chance of Precip.
Yesterday
High -- | Low -- °F
Precip. -- in
Pressure 30.12 in
Visibility 4.0 miles
Clouds Mostly Cloudy 800 ft
Mostly Cloudy 1200 ft
Overcast 2200 ft
Windchill 36 °F
Dew Point 34 °F
Humidity 92%
Rainfall 0.02 in
Snow Depth Not available.
7:12 AM 4:39 PM
Waxing Crescent, 21% visible
METAR KEOK 041015Z AUTO 12007KT 4SM -UP BKN008 BKN012 OVC022 02/01 A3012 RMK AO2
Pressure 30.12 in
Visibility 4.0 miles
Clouds Mostly Cloudy 800 ft
Mostly Cloudy 1200 ft
Overcast 2200 ft
Windchill 36 °F
Dew Point 34 °F
Humidity 92%
Rainfall 0.02 in
Snow Depth Not available.
7:12 AM 4:39 PM
Waxing Crescent, 21% visible
METAR KEOK 041015Z AUTO 12007KT 4SM -UP BKN008 BKN012 OVC022 02/01 A3012 RMK AO2

10-Day Weather Forecast

Almanac

Astronomy

Dec. 04, 2016 Rise Set
Actual Time
Civil Twilight
Nautical Twilight
Astronomical Twilight
Moon
Length of Visible Light
Length of Day
Tomorrow will be .
, % of the Moon is Illuminated

Today's Extremes

State Highs State Lows

Community

WunderPhotos

Upload Photos

1,955,591 photos uploaded!

WunderBlog® & News

Nearby

Air Quality

  Air Quality AQ Index Pollutant
Not available.

Snow Depth

Station Depth Elevation

Earthquake Activity

City Distance Mag. Time & Date
Minimum magnitude displayed is 2.5.

Coastal Water Temperatures

Place Temperature

Stations

Nearby Weather Stations

Station Location Temp. Windchill Dew Point Humidity Wind Precip. Elev Updated Type
                   

Watches & Warnings

There are currently no watches in effect.